Time;durP1;ratioP1;P1;durP2;ratioP2;P2;SDS_P1;SDS_P2;PMS_P1;PMS_P2;Temp;Humidity;BMP_temperature;BMP_pressure;BME280_temperature;BME280_humidity;BME280_pressure;Samples;Min_cycle;Max_cycle;Signal;HPM_P1;HPM_P2
2022/08/29 03:32:05;;;;;;;;;;;;;;;12.04;100.00;99849.09;6109086;22;20008;-91
2022/08/29 03:37:28;;;;;;;;;;;;;;;11.78;100.00;99837.03;6277309;22;20331;-93
2022/08/29 03:39:53;;;;;;;;;;;;;;;12.04;100.00;99834.97;6250912;22;19911;-83
2022/08/29 03:42:19;;;;;;;;;;;;;;;11.94;100.00;99842.50;6277320;22;20005;-91
2022/08/29 03:44:44;;;;;;;;;;;;;;;11.80;100.00;99846.63;6277387;22;19911;-87
2022/08/29 03:47:10;;;;;;;;;;;;;;;12.04;100.00;99845.59;6275688;22;19912;-88
2022/08/29 03:49:35;;;;;;;;;;;;;;;11.92;100.00;99845.25;6276979;22;20382;-89
2022/08/29 03:52:03;;;;;;;;;;;;;;;11.75;100.00;99848.66;6276717;22;19970;-92
2022/08/29 03:54:32;;;;;;;;;;;;;;;12.03;100.00;99830.56;6250299;22;19999;-91
2022/08/29 03:56:57;;;;;;;;;;;;;;;11.86;100.00;99840.19;6249638;22;19918;-92
2022/08/29 03:59:23;;;;;;;;;;;;;;;11.75;100.00;99843.34;6249715;22;19911;-90
2022/08/29 04:01:56;;;;;;;;;;;;;;;12.02;100.00;99835.03;6248323;22;19969;-91
2022/08/29 04:10:22;;;;;;;;;;;;;;;11.77;100.00;99838.81;6263008;22;19908;-91
2022/08/29 04:15:50;;;;;;;;;;;;;;;11.88;100.00;99837.47;6273137;22;19925;-90
2022/08/29 04:18:16;;;;;;;;;;;;;;;11.70;100.00;99840.03;6249553;22;20319;-90
2022/08/29 04:20:46;;;;;;;;;;;;;;;11.87;100.00;99836.59;6249775;22;20239;-89
2022/08/29 04:23:12;;;;;;;;;;;;;;;11.83;100.00;99842.97;6247511;22;19912;-90
2022/08/29 04:25:38;;;;;;;;;;;;;;;11.67;100.00;99834.88;6276519;22;19996;-90
2022/08/29 04:28:04;;;;;;;;;;;;;;;11.82;100.00;99826.19;6274151;22;20000;-89
2022/08/29 07:54:19;;;;;;;;;;;;;;;11.60;100.00;99905.09;6037863;23;19992;-89
2022/08/29 07:57:13;;;;;;;;;;;;;;;11.61;100.00;99909.47;6061796;22;19925;-88
2022/08/29 07:59:38;;;;;;;;;;;;;;;11.48;100.00;99909.16;6276078;22;19997;-90
2022/08/29 08:02:03;;;;;;;;;;;;;;;11.67;100.00;99909.19;6276433;22;19947;-89
2022/08/29 08:04:29;;;;;;;;;;;;;;;11.53;100.00;99911.59;6276387;22;20365;-91
2022/08/29 08:06:54;;;;;;;;;;;;;;;11.57;100.00;99913.19;6273446;22;19912;-90
2022/08/29 08:09:19;;;;;;;;;;;;;;;11.66;100.00;99917.22;6274814;22;19919;-91
2022/08/29 08:11:45;;;;;;;;;;;;;;;11.50;100.00;99912.59;6276237;22;19918;-90
2022/08/29 08:14:10;;;;;;;;;;;;;;;11.50;100.00;99911.75;6275639;22;19921;-91
2022/08/29 08:16:48;;;;;;;;;;;;;;;14.46;100.00;99908.34;6277202;22;19911;-94
2022/08/29 08:19:13;;;;;;;;;;;;;;;16.94;100.00;99905.53;6274982;22;19915;-89
2022/08/29 08:21:39;;;;;;;;;;;;;;;16.71;100.00;99913.28;6272957;22;19919;-87
2022/08/29 08:24:05;;;;;;;;;;;;;;;18.31;100.00;99905.84;6249318;22;19911;-89
2022/08/29 08:26:41;;;;;;;;;;;;;;;18.69;99.78;99913.72;6274966;22;20220;-86
2022/08/29 08:29:07;;;;;;;;;;;;;;;18.54;98.64;99914.91;6276115;22;19912;-82
2022/08/29 08:31:32;;;;;;;;;;;;;;;15.48;100.00;99922.88;6276113;22;19956;-91
2022/08/29 08:34:04;;;;;;;;;;;;;;;14.16;100.00;99925.09;6277369;22;19911;-93
2022/08/29 08:36:30;;;;;;;;;;;;;;;16.57;100.00;99926.69;6273484;22;19911;-94
2022/08/29 08:38:57;;;;;;;;;;;;;;;16.63;100.00;99917.44;6276365;22;19938;-89
2022/08/29 08:41:25;;;;;;;;;;;;;;;17.20;100.00;99919.84;6274697;22;19939;-89
2022/08/29 08:43:55;;;;;;;;;;;;;;;18.32;100.00;99920.97;6275295;22;19929;-87
2022/08/29 08:46:35;;;;;;;;;;;;;;;18.77;100.00;99913.16;6275582;22;19961;-87
2022/08/29 08:49:15;;;;;;;;;;;;;;;16.80;100.00;99922.50;6276013;22;19968;-89
2022/08/29 08:51:43;;;;;;;;;;;;;;;17.31;100.00;99910.22;6272296;22;20512;-87
2022/08/29 08:55:11;;;;;;;;;;;;;;;15.20;100.00;99922.72;6246786;22;19920;-90
2022/08/29 08:57:43;;;;;;;;;;;;;;;14.02;100.00;99924.16;6106139;23;19917;-93
2022/08/29 09:00:12;;;;;;;;;;;;;;;13.58;100.00;99922.97;6139451;23;20316;-90
2022/08/29 09:02:51;;;;;;;;;;;;;;;13.19;100.00;99924.06;6144516;22;19920;-89
2022/08/29 09:08:53;;;;;;;;;;;;;;;12.68;100.00;99919.50;6152387;23;19952;-89
2022/08/29 09:11:39;;;;;;;;;;;;;;;12.70;100.00;99922.06;6151541;23;19921;-90
2022/08/29 09:14:35;;;;;;;;;;;;;;;;;;;;;
2022/08/29 09:17:25;;;;;;;;;;;;;;;;;;;;;
2022/08/29 09:22:41;;;;;;;;;;;;;;;12.51;100.00;99920.34;6140624;23;19932;-91
2022/08/29 09:25:26;;;;;;;;;;;;;;;;;;;;;
2022/08/29 09:28:01;;;;;;;;;;;;;;;12.21;100.00;99919.16;6275956;22;20010;-92
2022/08/29 09:30:32;;;;;;;;;;;;;;;12.04;100.00;99911.97;6246095;22;19922;-90
2022/08/29 09:33:04;;;;;;;;;;;;;;;11.96;100.00;99899.06;6249267;22;19965;-91
2022/08/29 09:36:06;;;;;;;;;;;;;;;;;;;;;
2022/08/29 09:39:29;;;;;;;;;;;;;;;;;;;;;
2022/08/29 09:42:04;;;;;;;;;;;;;;;;;;;;;
2022/08/29 09:44:59;;;;;;;;;;;;;;;12.25;100.00;99902.13;6275651;22;20002;-92
2022/08/29 09:47:38;;;;;;;;;;;;;;;;;;;;;
2022/08/29 09:50:18;;;;;;;;;;;;;;;12.25;100.00;99899.47;6275704;22;19997;-90
2022/08/29 09:52:51;;;;;;;;;;;;;;;12.19;100.00;99892.66;6274063;22;19918;-89
2022/08/29 09:55:34;;;;;;;;;;;;;;;12.00;100.00;99895.34;6248114;22;19966;-91
2022/08/29 09:58:04;;;;;;;;;;;;;;;11.94;100.00;99885.00;6248151;22;20538;-92
2022/08/29 10:00:37;;;;;;;;;;;;;;;12.02;100.00;99881.97;6273365;22;20002;-90
2022/08/29 10:03:33;;;;;;;;;;;;;;;12.14;100.00;99887.56;6275219;22;19911;-92
2022/08/29 10:06:12;;;;;;;;;;;;;;;12.19;100.00;99884.69;6244804;22;19919;-94
2022/08/29 10:08:41;;;;;;;;;;;;;;;12.10;100.00;99875.34;6276475;22;19957;-90
2022/08/29 10:11:07;;;;;;;;;;;;;;;11.95;100.00;99881.38;6248324;22;19911;-89
2022/08/29 10:16:44;;;;;;;;;;;;;;;11.94;100.00;99875.22;6265260;22;19930;-92
2022/08/29 10:22:21;;;;;;;;;;;;;;;11.96;100.00;99878.66;6239833;22;19919;-91
2022/08/29 10:25:10;;;;;;;;;;;;;;;12.07;100.00;99867.53;6274983;22;19947;-90
2022/08/29 10:28:04;;;;;;;;;;;;;;;12.02;100.00;99861.59;6277520;22;19922;-94
2022/08/29 10:30:34;;;;;;;;;;;;;;;12.06;100.00;99868.50;6274937;22;19916;-91
2022/08/29 10:36:09;;;;;;;;;;;;;;;11.80;100.00;99865.22;6268936;22;19929;-92
2022/08/29 10:52:48;;;;;;;;;;;;;;;11.17;100.00;99857.47;6267747;22;19927;-91
2022/08/29 10:55:32;;;;;;;;;;;;;;;11.30;100.00;99856.94;6249494;22;19961;-89
2022/08/29 11:04:16;;;;;;;;;;;;;;;11.23;100.00;99843.06;6153881;23;19913;-90
2022/08/29 11:09:28;;;;;;;;;;;;;;;11.15;100.00;99837.25;6258776;22;19924;-90
2022/08/29 11:12:13;;;;;;;;;;;;;;;11.29;100.00;99840.13;6276315;22;19934;-88
2022/08/29 11:15:06;;;;;;;;;;;;;;;11.44;100.00;99836.81;6249110;22;19933;-89
2022/08/29 11:17:34;;;;;;;;;;;;;;;11.47;100.00;99819.88;6249792;22;19961;-87
2022/08/29 11:20:42;;;;;;;;;;;;;;;11.24;100.00;99829.72;6250292;22;19911;-90
2022/08/29 11:23:23;;;;;;;;;;;;;;;11.29;100.00;99821.56;6186202;23;19981;-88
2022/08/29 11:26:02;;;;;;;;;;;;;;;11.32;100.00;99817.94;6245619;22;20278;-87
2022/08/29 11:32:00;;;;;;;;;;;;;;;11.85;100.00;99822.53;6244205;23;20431;-91
2022/08/29 11:43:52;;;;;;;;;;;;;;;11.61;100.00;99806.81;6271867;22;19946;-92
2022/08/29 11:46:40;;;;;;;;;;;;;;;;;;;;;
2022/08/29 11:55:13;;;;;;;;;;;;;;;11.78;100.00;99811.34;6255389;22;19921;-91
2022/08/29 12:01:35;;;;;;;;;;;;;;;;;;;;;
2022/08/29 12:04:44;;;;;;;;;;;;;;;11.76;100.00;99807.06;6220439;22;19998;-89
2022/08/29 12:07:37;;;;;;;;;;;;;;;11.72;100.00;99801.00;6272463;22;19950;-93
2022/08/29 12:10:33;;;;;;;;;;;;;;;;;;;;;
2022/08/29 12:13:37;;;;;;;;;;;;;;;;;;;;;
2022/08/29 12:19:48;;;;;;;;;;;;;;;;;;;;;
2022/08/29 12:22:42;;;;;;;;;;;;;;;11.85;100.00;99777.38;6212660;23;19987;-90
2022/08/29 12:25:36;;;;;;;;;;;;;;;;;;;;;
2022/08/29 12:28:36;;;;;;;;;;;;;;;;;;;;;
2022/08/29 12:31:31;;;;;;;;;;;;;;;11.82;100.00;99770.44;6244852;23;19998;-91
2022/08/29 12:37:15;;;;;;;;;;;;;;;11.76;100.00;99780.50;6262753;22;19972;-92
2022/08/29 12:45:43;;;;;;;;;;;;;;;11.92;100.00;99767.38;6170203;22;20305;-92
2022/08/29 12:48:41;;;;;;;;;;;;;;;;;;;;;
2022/08/29 12:59:25;;;;;;;;;;;;;;;11.91;100.00;99753.19;6276301;22;20255;-93
2022/08/29 13:01:51;;;;;;;;;;;;;;;11.98;100.00;99749.34;6228853;22;19960;-87
2022/08/29 13:04:50;;;;;;;;;;;;;;;11.82;100.00;99743.91;6249970;22;19916;-90
2022/08/29 13:07:35;;;;;;;;;;;;;;;11.77;100.00;99745.91;6248941;22;19946;-90
2022/08/29 13:10:10;;;;;;;;;;;;;;;;;;;;;
2022/08/29 13:13:22;;;;;;;;;;;;;;;11.65;100.00;99743.84;6276579;22;19993;-91
2022/08/29 13:16:52;;;;;;;;;;;;;;;;;;;;;
2022/08/29 13:19:19;;;;;;;;;;;;;;;11.68;100.00;99741.06;6243184;22;19912;-90
2022/08/29 13:21:45;;;;;;;;;;;;;;;11.95;100.00;99738.00;6275034;22;19912;-90
2022/08/29 13:24:40;;;;;;;;;;;;;;;11.95;100.00;99740.66;6249626;22;19919;-95
2022/08/29 13:27:08;;;;;;;;;;;;;;;11.88;100.00;99733.91;6220713;22;19915;-90
2022/08/29 13:35:12;;;;;;;;;;;;;;;11.81;100.00;99738.66;6257035;22;19926;-91
2022/08/29 13:38:06;;;;;;;;;;;;;;;11.98;100.00;99737.84;6273630;22;19915;-89
2022/08/29 13:40:35;;;;;;;;;;;;;;;11.94;100.00;99737.16;6235458;22;20277;-90
2022/08/29 13:43:00;;;;;;;;;;;;;;;11.86;100.00;99733.13;6239880;22;19911;-90
2022/08/29 13:45:26;;;;;;;;;;;;;;;11.72;100.00;99734.66;6248845;22;20315;-90
2022/08/29 13:48:01;;;;;;;;;;;;;;;11.93;100.00;99726.59;6249299;22;19919;-89
2022/08/29 13:50:30;;;;;;;;;;;;;;;11.92;100.00;99725.75;6236242;22;19959;-92
2022/08/29 13:52:56;;;;;;;;;;;;;;;11.77;100.00;99718.50;6246256;22;19982;-88
2022/08/29 13:55:21;;;;;;;;;;;;;;;11.59;100.00;99722.91;6248685;22;20366;-89
2022/08/29 13:57:51;;;;;;;;;;;;;;;11.79;100.00;99717.50;6273651;22;19917;-90
2022/08/29 14:00:17;;;;;;;;;;;;;;;11.88;100.00;99723.28;6249925;22;20506;-89
2022/08/29 14:03:10;;;;;;;;;;;;;;;11.75;100.00;99725.69;6278610;22;20345;-89
2022/08/29 14:06:05;;;;;;;;;;;;;;;11.67;100.00;99710.13;6250681;22;19916;-89
2022/08/29 14:08:31;;;;;;;;;;;;;;;11.68;100.00;99703.91;6227363;22;20243;-88
2022/08/29 14:10:56;;;;;;;;;;;;;;;11.85;100.00;99704.84;6250328;22;19926;-89
2022/08/29 14:13:21;;;;;;;;;;;;;;;11.88;100.00;99704.72;6250117;22;19911;-89
2022/08/29 14:15:52;;;;;;;;;;;;;;;11.76;100.00;99696.41;6278112;22;19908;-89
2022/08/29 14:18:17;;;;;;;;;;;;;;;11.58;100.00;99697.31;6250585;22;19915;-90
2022/08/29 14:20:51;;;;;;;;;;;;;;;11.74;100.00;99694.75;6196844;23;19983;-88
2022/08/29 14:23:16;;;;;;;;;;;;;;;11.89;100.00;99685.19;6095084;23;20551;-88
2022/08/29 14:25:41;;;;;;;;;;;;;;;11.67;100.00;99691.56;6096433;23;19917;-89
2022/08/29 14:28:10;;;;;;;;;;;;;;;11.54;100.00;99685.13;6096379;23;19917;-93
2022/08/29 14:39:34;;;;;;;;;;;;;;;11.82;100.00;99674.88;6213911;22;19961;-89
2022/08/29 14:42:39;;;;;;;;;;;;;;;11.69;100.00;99665.78;6217133;23;19999;-90
2022/08/29 14:45:05;;;;;;;;;;;;;;;11.67;100.00;99675.63;6240357;23;20323;-88
2022/08/29 14:47:33;;;;;;;;;;;;;;;11.52;100.00;99671.06;6214811;23;19923;-90
2022/08/29 14:52:36;;;;;;;;;;;;;;;11.77;100.00;99665.41;6266675;22;19942;-88
2022/08/29 14:55:06;;;;;;;;;;;;;;;11.65;100.00;99661.59;6250544;22;19917;-88
2022/08/29 14:57:34;;;;;;;;;;;;;;;11.49;100.00;99673.88;6250508;22;19943;-89
2022/08/29 15:00:32;;;;;;;;;;;;;;;11.67;100.00;99667.66;6277692;22;19921;-88
2022/08/29 15:06:12;;;;;;;;;;;;;;;11.75;100.00;99665.50;6264003;22;19958;-88
2022/08/29 15:08:45;;;;;;;;;;;;;;;11.74;100.00;99669.09;6250492;22;20316;-91
2022/08/29 15:14:38;;;;;;;;;;;;;;;11.55;100.00;99666.50;6262285;22;19911;-92
2022/08/29 15:17:06;;;;;;;;;;;;;;;11.52;100.00;99666.63;6276903;22;19949;-90
2022/08/29 15:19:35;;;;;;;;;;;;;;;11.86;100.00;99664.13;6250483;22;20273;-88
2022/08/29 15:22:05;;;;;;;;;;;;;;;11.82;100.00;99658.97;6249062;22;19911;-90
2022/08/29 15:24:30;;;;;;;;;;;;;;;11.74;100.00;99666.44;6250428;22;19911;-90
2022/08/29 15:26:56;;;;;;;;;;;;;;;11.61;100.00;99667.97;6270075;22;19919;-90
2022/08/29 15:29:21;;;;;;;;;;;;;;;12.76;100.00;99647.94;6276059;22;19925;-89
2022/08/29 15:31:50;;;;;;;;;;;;;;;11.90;100.00;99661.22;6193393;23;19927;-89
2022/08/29 15:34:16;;;;;;;;;;;;;;;11.49;100.00;99657.94;6096113;23;19913;-91
2022/08/29 15:36:44;;;;;;;;;;;;;;;11.37;100.00;99659.41;6095142;23;19917;-88
2022/08/29 15:39:09;;;;;;;;;;;;;;;11.47;100.00;99655.38;6121738;23;19913;-87
2022/08/29 15:41:37;;;;;;;;;;;;;;;11.35;100.00;99654.19;6121635;23;19924;-88
2022/08/29 15:44:03;;;;;;;;;;;;;;;11.26;100.00;99655.50;6099780;23;19924;-88
2022/08/29 15:46:28;;;;;;;;;;;;;;;11.32;100.00;99650.81;6095610;23;19913;-89
2022/08/29 15:48:56;;;;;;;;;;;;;;;11.50;100.00;99651.72;6121994;23;19917;-87
2022/08/29 15:51:21;;;;;;;;;;;;;;;11.37;100.00;99647.00;6121083;23;19923;-88
2022/08/29 15:53:46;;;;;;;;;;;;;;;11.29;100.00;99632.41;6095817;23;19991;-87
2022/08/29 15:56:12;;;;;;;;;;;;;;;11.40;100.00;99644.19;6121911;23;19909;-92
2022/08/29 15:59:21;;;;;;;;;;;;;;;11.46;100.00;99640.41;6124245;23;19920;-87
2022/08/29 16:01:47;;;;;;;;;;;;;;;11.44;100.00;99642.28;6121238;23;19920;-88
2022/08/29 16:04:18;;;;;;;;;;;;;;;11.27;100.00;99640.44;6121748;23;19983;-90
2022/08/29 16:06:43;;;;;;;;;;;;;;;11.23;100.00;99628.22;6120429;23;19913;-88
2022/08/29 16:09:12;;;;;;;;;;;;;;;11.44;100.00;99637.81;6121591;23;19923;-88
2022/08/29 16:11:37;;;;;;;;;;;;;;;11.40;100.00;99641.53;6121652;23;19924;-87
2022/08/29 16:14:03;;;;;;;;;;;;;;;11.30;100.00;99634.97;6096322;23;19920;-88
2022/08/29 16:16:40;;;;;;;;;;;;;;;11.31;100.00;99628.72;6121856;23;20317;-88
2022/08/29 16:19:16;;;;;;;;;;;;;;;11.47;100.00;99625.34;6096048;23;20026;-88
2022/08/29 16:21:41;;;;;;;;;;;;;;;11.53;100.00;99627.69;6120051;23;19928;-88
2022/08/29 16:24:22;;;;;;;;;;;;;;;11.37;100.00;99625.78;6095359;23;19916;-89
2022/08/29 16:26:48;;;;;;;;;;;;;;;11.37;100.00;99631.06;6096016;23;19997;-87
2022/08/29 16:29:18;;;;;;;;;;;;;;;11.57;100.00;99621.31;6096270;23;19949;-88
2022/08/29 16:31:43;;;;;;;;;;;;;;;11.57;100.00;99618.66;6137748;23;20003;-89
2022/08/29 16:34:42;;;;;;;;;;;;;;;11.52;100.00;99626.84;6246030;23;19944;-91
2022/08/29 16:37:07;;;;;;;;;;;;;;;11.60;100.00;99626.47;6244611;23;19962;-88
2022/08/29 16:39:33;;;;;;;;;;;;;;;12.19;100.00;99621.72;6245632;23;19919;-90
2022/08/29 16:42:18;;;;;;;;;;;;;;;11.97;100.00;99625.47;6244488;23;20272;-89
2022/08/29 16:44:50;;;;;;;;;;;;;;;11.82;100.00;99636.84;6219792;23;20263;-91
2022/08/29 16:47:15;;;;;;;;;;;;;;;11.72;100.00;99630.28;6244111;23;19912;-90
2022/08/29 16:49:40;;;;;;;;;;;;;;;11.78;100.00;99636.16;6245422;23;19919;-87
2022/08/29 16:52:06;;;;;;;;;;;;;;;11.89;100.00;99629.44;6244550;23;19962;-88
2022/08/29 17:00:50;;;;;;;;;;;;;;;11.69;100.00;99631.28;6275682;22;19967;-88
2022/08/29 17:03:51;;;;;;;;;;;;;;;;;;;;;
2022/08/29 17:06:48;;;;;;;;;;;;;;;11.80;100.00;99631.59;6273975;22;19985;-89
2022/08/29 17:16:35;;;;;;;;;;;;;;;11.77;100.00;99621.13;6275783;22;20398;-89
2022/08/29 17:19:53;;;;;;;;;;;;;;;11.95;100.00;99626.50;6247753;22;20279;-89
2022/08/29 17:25:36;;;;;;;;;;;;;;;12.01;100.00;99626.19;6271373;22;19962;-89
2022/08/29 17:28:14;;;;;;;;;;;;;;;11.92;100.00;99622.22;6248720;22;19927;-88
2022/08/29 17:30:39;;;;;;;;;;;;;;;11.81;100.00;99627.19;6275905;22;19973;-90
2022/08/29 17:33:22;;;;;;;;;;;;;;;11.77;100.00;99631.75;6276260;22;20319;-90
2022/08/29 17:35:48;;;;;;;;;;;;;;;11.95;100.00;99634.44;6248575;22;19918;-88
2022/08/29 17:38:33;;;;;;;;;;;;;;;11.97;100.00;99632.59;6274372;22;19911;-88
2022/08/29 17:41:01;;;;;;;;;;;;;;;11.90;100.00;99633.81;6249485;22;19911;-88
2022/08/29 17:43:26;;;;;;;;;;;;;;;11.82;100.00;99626.22;6274901;22;19917;-88
2022/08/29 17:45:52;;;;;;;;;;;;;;;11.92;100.00;99629.31;6275554;22;19942;-88
2022/08/29 17:48:18;;;;;;;;;;;;;;;11.98;100.00;99636.94;6275897;22;20430;-88
2022/08/29 17:50:43;;;;;;;;;;;;;;;11.91;100.00;99636.38;6273948;22;19915;-87
2022/08/29 17:53:09;;;;;;;;;;;;;;;11.86;100.00;99637.56;6247087;22;19911;-89
2022/08/29 17:55:34;;;;;;;;;;;;;;;11.95;100.00;99637.09;6275262;22;20535;-86
2022/08/29 17:57:59;;;;;;;;;;;;;;;11.94;100.00;99636.25;6273504;22;19965;-90
2022/08/29 18:00:25;;;;;;;;;;;;;;;11.83;100.00;99633.25;6275141;22;19958;-88
2022/08/29 18:02:51;;;;;;;;;;;;;;;11.82;100.00;99631.53;6247790;22;20260;-88
2022/08/29 18:05:27;;;;;;;;;;;;;;;11.97;100.00;99640.56;6248188;22;19922;-88
2022/08/29 18:07:52;;;;;;;;;;;;;;;11.90;100.00;99628.50;6247338;22;19917;-88
2022/08/29 18:10:18;;;;;;;;;;;;;;;11.82;100.00;99628.88;6275097;22;19997;-88
2022/08/29 18:12:44;;;;;;;;;;;;;;;11.84;100.00;99631.44;6275395;22;19990;-88
2022/08/29 18:15:12;;;;;;;;;;;;;;;11.99;100.00;99638.69;6275788;22;19990;-91
2022/08/29 18:17:38;;;;;;;;;;;;;;;11.92;100.00;99634.63;6248683;22;19954;-86
2022/08/29 18:20:04;;;;;;;;;;;;;;;11.83;100.00;99635.91;6275839;22;20223;-88
2022/08/29 18:22:30;;;;;;;;;;;;;;;11.81;100.00;99643.09;6275113;22;19911;-90
2022/08/29 18:25:00;;;;;;;;;;;;;;;11.99;100.00;99644.84;6277857;22;19923;-93
2022/08/29 18:30:20;;;;;;;;;;;;;;;11.82;100.00;99643.03;6264100;22;19994;-89
2022/08/29 18:32:51;;;;;;;;;;;;;;;11.75;100.00;99651.38;6275314;22;19942;-88
2022/08/29 18:35:17;;;;;;;;;;;;;;;11.82;100.00;99658.97;6248682;22;19969;-88
2022/08/29 18:37:42;;;;;;;;;;;;;;;11.88;100.00;99662.22;6272479;22;19907;-88
2022/08/29 18:40:08;;;;;;;;;;;;;;;11.82;100.00;99653.66;6273903;22;20010;-90
2022/08/29 18:42:33;;;;;;;;;;;;;;;11.72;100.00;99667.44;6275391;22;19907;-90
2022/08/29 18:44:59;;;;;;;;;;;;;;;11.90;100.00;99671.84;6275350;22;19915;-88
2022/08/29 18:47:24;;;;;;;;;;;;;;;11.90;100.00;99669.19;6276392;22;19911;-90
2022/08/29 18:52:35;;;;;;;;;;;;;;;11.72;100.00;99670.94;6275569;22;19938;-90
2022/08/29 18:55:11;;;;;;;;;;;;;;;11.86;100.00;99672.94;6250334;22;19915;-93
2022/08/29 18:57:36;;;;;;;;;;;;;;;11.95;100.00;99675.16;6273571;22;20276;-87
2022/08/29 19:00:02;;;;;;;;;;;;;;;11.82;100.00;99682.84;6273032;22;19915;-90
2022/08/29 19:02:28;;;;;;;;;;;;;;;11.72;100.00;99684.22;6274905;22;19996;-90
2022/08/29 19:04:54;;;;;;;;;;;;;;;11.86;100.00;99677.38;6277434;22;20362;-91
2022/08/29 19:07:21;;;;;;;;;;;;;;;11.90;100.00;99676.28;6276003;22;19934;-89
2022/08/29 19:09:47;;;;;;;;;;;;;;;11.79;100.00;99679.47;6249192;22;19918;-92
2022/08/29 19:12:12;;;;;;;;;;;;;;;11.72;100.00;99684.22;6277091;22;19911;-92
2022/08/29 19:14:49;;;;;;;;;;;;;;;11.85;100.00;99684.47;6278077;22;19986;-96
2022/08/29 19:17:15;;;;;;;;;;;;;;;11.88;100.00;99680.81;6275077;22;19911;-91
2022/08/29 19:22:24;;;;;;;;;;;;;;;11.68;100.00;99695.06;6276287;22;19938;-89
2022/08/29 19:24:50;;;;;;;;;;;;;;;11.74;100.00;99702.72;6275451;22;20327;-92
2022/08/29 19:27:15;;;;;;;;;;;;;;;11.88;100.00;99702.06;6276383;22;19919;-92
2022/08/29 19:29:42;;;;;;;;;;;;;;;11.78;100.00;99699.84;6277768;22;20264;-92
2022/08/29 19:32:07;;;;;;;;;;;;;;;11.67;100.00;99707.47;6277915;22;19942;-93
2022/08/29 19:34:32;;;;;;;;;;;;;;;11.78;100.00;99707.81;6276337;22;19968;-90
2022/08/29 19:36:58;;;;;;;;;;;;;;;11.85;100.00;99707.50;6249843;22;20319;-92
2022/08/29 19:39:27;;;;;;;;;;;;;;;11.74;100.00;99714.22;6275107;22;19930;-90
2022/08/29 19:41:52;;;;;;;;;;;;;;;11.67;100.00;99712.78;6276233;22;19961;-89
2022/08/29 19:44:17;;;;;;;;;;;;;;;11.77;100.00;99713.19;6250683;22;19915;-93
2022/08/29 19:46:43;;;;;;;;;;;;;;;11.82;100.00;99716.47;6273219;22;19930;-92
2022/08/29 19:49:08;;;;;;;;;;;;;;;11.74;100.00;99723.97;6276136;22;19915;-92
2022/08/29 19:51:33;;;;;;;;;;;;;;;11.66;100.00;99726.97;6275034;22;19911;-92
2022/08/29 19:54:01;;;;;;;;;;;;;;;11.79;100.00;99725.47;6278304;22;19916;-92
2022/08/29 19:56:28;;;;;;;;;;;;;;;11.82;100.00;99727.97;6276370;22;19923;-91
2022/08/29 19:58:54;;;;;;;;;;;;;;;11.71;100.00;99726.75;6277707;22;19915;-93
2022/08/29 20:01:19;;;;;;;;;;;;;;;11.70;100.00;99733.88;6250695;22;19911;-93
2022/08/29 20:03:44;;;;;;;;;;;;;;;11.85;100.00;99726.09;6276592;22;19919;-93
2022/08/29 20:06:11;;;;;;;;;;;;;;;11.84;100.00;99727.03;6276269;22;20327;-93
2022/08/29 20:08:37;;;;;;;;;;;;;;;11.68;100.00;99733.09;6250900;22;19919;-94
2022/08/29 20:11:05;;;;;;;;;;;;;;;11.67;100.00;99730.53;6277901;22;20280;-93
2022/08/29 20:13:30;;;;;;;;;;;;;;;11.80;100.00;99740.44;6277955;22;20323;-90
2022/08/29 20:15:55;;;;;;;;;;;;;;;12.03;100.00;99733.19;6277692;22;19994;-91
2022/08/29 20:18:21;;;;;;;;;;;;;;;11.47;100.00;99737.63;6278138;22;20338;-92
2022/08/29 20:20:46;;;;;;;;;;;;;;;11.26;100.00;99739.47;6250748;22;20323;-91
2022/08/29 20:23:12;;;;;;;;;;;;;;;11.32;100.00;99744.50;6275401;22;19918;-89
2022/08/29 20:25:37;;;;;;;;;;;;;;;11.18;100.00;99749.59;6249650;22;19923;-89
2022/08/29 20:28:04;;;;;;;;;;;;;;;10.95;100.00;99748.84;6249799;22;19916;-92
2022/08/29 20:30:31;;;;;;;;;;;;;;;11.06;100.00;99749.22;6277310;22;19918;-89
2022/08/29 20:32:56;;;;;;;;;;;;;;;11.17;100.00;99750.50;6249282;22;19922;-89
2022/08/29 20:38:06;;;;;;;;;;;;;;;10.98;100.00;99756.66;6275012;22;19922;-89
2022/08/29 20:40:34;;;;;;;;;;;;;;;11.02;100.00;99758.22;6249509;22;19911;-91
2022/08/29 20:43:15;;;;;;;;;;;;;;;11.15;100.00;99755.88;6249641;22;19954;-88
2022/08/29 20:45:41;;;;;;;;;;;;;;;11.05;100.00;99751.94;6276563;22;19911;-90
2022/08/29 20:48:07;;;;;;;;;;;;;;;10.97;100.00;99760.25;6276038;22;19961;-92
2022/08/29 20:50:32;;;;;;;;;;;;;;;11.06;100.00;99762.47;6275492;22;20280;-90
2022/08/29 20:52:57;;;;;;;;;;;;;;;11.11;100.00;99756.13;6275422;22;20019;-91
2022/08/29 20:55:23;;;;;;;;;;;;;;;10.98;100.00;99756.66;6250001;22;19937;-91
2022/08/29 21:00:48;;;;;;;;;;;;;;;10.97;100.00;99768.19;6231597;22;20427;-90
2022/08/29 21:06:02;;;;;;;;;;;;;;;11.14;100.00;99774.56;6273376;22;19926;-91
2022/08/29 21:08:28;;;;;;;;;;;;;;;10.96;100.00;99761.19;6249166;22;19919;-92
2022/08/29 21:10:55;;;;;;;;;;;;;;;10.98;100.00;99756.66;6276443;22;19931;-91
2022/08/29 21:13:20;;;;;;;;;;;;;;;11.18;100.00;99758.41;6276161;22;19915;-89
2022/08/29 21:18:14;;;;;;;;;;;;;;;11.07;100.00;99760.69;6277632;22;20343;-89
2022/08/29 21:20:42;;;;;;;;;;;;;;;11.15;100.00;99763.00;6249794;22;19998;-92
2022/08/29 21:23:08;;;;;;;;;;;;;;;11.26;100.00;99756.28;6248838;22;19968;-90
2022/08/29 21:25:34;;;;;;;;;;;;;;;11.18;100.00;99755.75;6276503;22;19911;-91
2022/08/29 21:30:54;;;;;;;;;;;;;;;11.24;100.00;99755.47;6276800;22;19990;-91
2022/08/29 21:33:40;;;;;;;;;;;;;;;11.45;100.00;99761.59;6249760;22;19954;-90
2022/08/29 21:36:09;;;;;;;;;;;;;;;11.33;100.00;99762.16;6275381;22;19911;-88
2022/08/29 21:39:03;;;;;;;;;;;;;;;11.31;100.00;99763.16;6276865;22;19945;-92
2022/08/29 21:41:32;;;;;;;;;;;;;;;11.29;100.00;99765.88;6256580;22;20358;-90
2022/08/29 21:43:58;;;;;;;;;;;;;;;11.49;100.00;99764.06;6276094;22;19918;-89
2022/08/29 21:46:30;;;;;;;;;;;;;;;11.45;100.00;99773.97;6276865;22;19911;-92
2022/08/29 21:49:09;;;;;;;;;;;;;;;11.37;100.00;99774.31;6276754;22;19911;-89
2022/08/29 21:51:35;;;;;;;;;;;;;;;11.33;100.00;99775.41;6249239;22;19911;-87
2022/08/29 21:54:01;;;;;;;;;;;;;;;11.58;100.00;99782.22;6249069;22;19922;-91
2022/08/29 21:56:27;;;;;;;;;;;;;;;11.56;100.00;99782.28;6276382;22;19914;-88
2022/08/29 21:58:54;;;;;;;;;;;;;;;11.46;100.00;99786.31;6276915;22;19911;-90
2022/08/29 22:01:21;;;;;;;;;;;;;;;11.49;100.00;99787.94;6277159;22;19991;-92
2022/08/29 22:03:46;;;;;;;;;;;;;;;11.64;100.00;99782.78;6276404;22;19909;-91
2022/08/29 22:06:13;;;;;;;;;;;;;;;11.51;100.00;99786.13;6275062;22;20002;-87
2022/08/29 22:08:39;;;;;;;;;;;;;;;11.47;100.00;99785.38;6275667;22;19915;-90
2022/08/29 22:11:11;;;;;;;;;;;;;;;11.67;100.00;99786.25;6275886;22;20377;-91
2022/08/29 22:13:36;;;;;;;;;;;;;;;11.67;100.00;99787.09;6276919;22;20332;-92
2022/08/29 22:18:45;;;;;;;;;;;;;;;11.50;100.00;99777.28;6277376;22;19926;-92
2022/08/29 22:21:10;;;;;;;;;;;;;;;11.68;100.00;99782.63;6272710;22;19915;-89
2022/08/29 22:23:36;;;;;;;;;;;;;;;11.67;100.00;99787.09;6250724;22;19954;-91
2022/08/29 22:26:01;;;;;;;;;;;;;;;11.57;100.00;99786.69;6251650;22;20006;-90
2022/08/29 22:28:26;;;;;;;;;;;;;;;11.53;100.00;99786.88;6276976;22;19911;-91
2022/08/29 22:30:52;;;;;;;;;;;;;;;11.73;100.00;99785.97;6277208;22;20332;-89
2022/08/29 22:36:23;;;;;;;;;;;;;;;11.68;100.00;99783.53;6272153;22;20346;-90
2022/08/29 22:38:55;;;;;;;;;;;;;;;11.55;100.00;99785.00;6249046;22;19986;-90
2022/08/29 22:41:21;;;;;;;;;;;;;;;11.68;100.00;99780.00;6248740;22;20318;-90
2022/08/29 22:43:46;;;;;;;;;;;;;;;11.80;100.00;99780.25;6276615;22;19915;-85
2022/08/29 22:46:16;;;;;;;;;;;;;;;11.79;100.00;99781.22;6249329;22;20052;-88
2022/08/29 22:48:42;;;;;;;;;;;;;;;11.19;100.00;99775.19;6250286;22;19911;-90
2022/08/29 22:51:14;;;;;;;;;;;;;;;11.13;100.00;99776.31;6276222;22;20223;-88
2022/08/29 22:53:40;;;;;;;;;;;;;;;11.06;100.00;99781.03;6249951;22;20402;-89
2022/08/29 22:56:06;;;;;;;;;;;;;;;10.86;100.00;99779.28;6275086;22;19943;-87
2022/08/29 22:58:32;;;;;;;;;;;;;;;10.84;100.00;99774.97;6250417;22;19918;-87
2022/08/29 23:00:57;;;;;;;;;;;;;;;10.99;100.00;99774.31;6250002;22;19911;-87